Sandbeach, Pennsylvania
Current Conditions -  °F | °C
As of 1:56 PM on Thursday 30 Oct 2014 (Local Time) from KMDT Reporting Station
Broken Clouds Broken Clouds  
Wind Chill: 53°   Ceiling: 6000
Heat Index: 53°   Visibility: 10mi
Dew Point: 39°   Wind: 12mph
Humidity: 59%   Direction: 300°WNW
Pressure: 30.02"   Gusts: NA
Location:  40.2634°N, 76.626°W
Report Text: KMDT 301756Z 30010KT 10SM SCT045 BKN060 12/04 A3002 RMK AO2 SLP169 T01170039 10139 20056 58010
Loading
Personal Weather Stations






























Interactive Weather Map
Tropical Storm Tracking
New forecast layout! Learn more

10-Day Weather Forecast

Advertisements
Track Severe Weather on mobile